sensor_id;sensor_type;location;lat;lon;timestamp;P1;durP1;ratioP1;P2;durP2;ratioP2
75038;SDS011;63609;49.992;14.512;2023-10-08T00:03:30;4.45;;;2.35;;
75038;SDS011;63609;49.992;14.512;2023-10-08T00:06:04;5.53;;;2.30;;
75038;SDS011;63609;49.992;14.512;2023-10-08T00:08:41;5.07;;;2.03;;
75038;SDS011;63609;49.992;14.512;2023-10-08T00:11:11;4.78;;;2.58;;
75038;SDS011;63609;49.992;14.512;2023-10-08T00:13:38;3.58;;;1.73;;
75038;SDS011;63609;49.992;14.512;2023-10-08T00:16:08;5.85;;;1.90;;
75038;SDS011;63609;49.992;14.512;2023-10-08T00:18:38;5.25;;;1.65;;
75038;SDS011;63609;49.992;14.512;2023-10-08T00:21:07;6.25;;;2.13;;
75038;SDS011;63609;49.992;14.512;2023-10-08T00:23:37;3.20;;;1.52;;
75038;SDS011;63609;49.992;14.512;2023-10-08T00:26:31;4.85;;;1.90;;
75038;SDS011;63609;49.992;14.512;2023-10-08T00:29:08;4.20;;;1.90;;
75038;SDS011;63609;49.992;14.512;2023-10-08T00:31:48;3.65;;;1.48;;
75038;SDS011;63609;49.992;14.512;2023-10-08T00:34:17;3.90;;;1.83;;
75038;SDS011;63609;49.992;14.512;2023-10-08T00:36:47;5.75;;;1.63;;
75038;SDS011;63609;49.992;14.512;2023-10-08T00:39:16;2.55;;;1.52;;
75038;SDS011;63609;49.992;14.512;2023-10-08T00:41:50;6.38;;;2.10;;
75038;SDS011;63609;49.992;14.512;2023-10-08T00:44:19;4.13;;;1.67;;
75038;SDS011;63609;49.992;14.512;2023-10-08T00:46:56;7.15;;;2.25;;
75038;SDS011;63609;49.992;14.512;2023-10-08T00:49:25;3.67;;;1.35;;
75038;SDS011;63609;49.992;14.512;2023-10-08T00:52:14;7.32;;;2.78;;
75038;SDS011;63609;49.992;14.512;2023-10-08T00:54:42;5.13;;;1.88;;
75038;SDS011;63609;49.992;14.512;2023-10-08T00:57:22;4.57;;;1.92;;
75038;SDS011;63609;49.992;14.512;2023-10-08T00:59:52;3.47;;;1.70;;
75038;SDS011;63609;49.992;14.512;2023-10-08T01:02:20;4.00;;;1.40;;
75038;SDS011;63609;49.992;14.512;2023-10-08T01:04:56;8.95;;;2.10;;
75038;SDS011;63609;49.992;14.512;2023-10-08T01:07:24;4.60;;;1.83;;
75038;SDS011;63609;49.992;14.512;2023-10-08T01:09:54;3.55;;;2.10;;
75038;SDS011;63609;49.992;14.512;2023-10-08T01:12:26;3.75;;;1.80;;
75038;SDS011;63609;49.992;14.512;2023-10-08T01:15:02;6.85;;;2.28;;
75038;SDS011;63609;49.992;14.512;2023-10-08T01:17:42;7.47;;;1.98;;
75038;SDS011;63609;49.992;14.512;2023-10-08T01:20:18;8.93;;;2.55;;
75038;SDS011;63609;49.992;14.512;2023-10-08T01:23:09;5.20;;;1.98;;
75038;SDS011;63609;49.992;14.512;2023-10-08T01:25:39;3.45;;;1.55;;
75038;SDS011;63609;49.992;14.512;2023-10-08T01:28:11;3.75;;;1.63;;
75038;SDS011;63609;49.992;14.512;2023-10-08T01:30:45;3.40;;;1.65;;
75038;SDS011;63609;49.992;14.512;2023-10-08T01:33:14;5.03;;;2.00;;
75038;SDS011;63609;49.992;14.512;2023-10-08T01:35:44;4.78;;;2.00;;
75038;SDS011;63609;49.992;14.512;2023-10-08T01:38:11;4.78;;;2.30;;
75038;SDS011;63609;49.992;14.512;2023-10-08T01:40:41;4.50;;;1.88;;
75038;SDS011;63609;49.992;14.512;2023-10-08T01:45:40;7.22;;;2.17;;
75038;SDS011;63609;49.992;14.512;2023-10-08T01:48:09;5.60;;;1.88;;
75038;SDS011;63609;49.992;14.512;2023-10-08T01:50:37;4.35;;;1.45;;
75038;SDS011;63609;49.992;14.512;2023-10-08T01:53:04;3.70;;;1.60;;
75038;SDS011;63609;49.992;14.512;2023-10-08T01:55:37;3.10;;;1.88;;
75038;SDS011;63609;49.992;14.512;2023-10-08T01:58:17;4.88;;;2.28;;
75038;SDS011;63609;49.992;14.512;2023-10-08T02:00:46;4.45;;;1.52;;
75038;SDS011;63609;49.992;14.512;2023-10-08T02:03:15;4.88;;;2.00;;
75038;SDS011;63609;49.992;14.512;2023-10-08T02:05:53;6.25;;;1.92;;
75038;SDS011;63609;49.992;14.512;2023-10-08T02:08:20;5.32;;;2.60;;
75038;SDS011;63609;49.992;14.512;2023-10-08T02:10:47;5.28;;;2.25;;
75038;SDS011;63609;49.992;14.512;2023-10-08T02:13:14;4.53;;;1.60;;
75038;SDS011;63609;49.992;14.512;2023-10-08T02:15:44;4.68;;;2.05;;
75038;SDS011;63609;49.992;14.512;2023-10-08T02:18:13;3.88;;;2.10;;
75038;SDS011;63609;49.992;14.512;2023-10-08T02:20:40;4.85;;;1.52;;
75038;SDS011;63609;49.992;14.512;2023-10-08T02:23:08;6.07;;;1.90;;
75038;SDS011;63609;49.992;14.512;2023-10-08T02:25:40;4.72;;;2.13;;
75038;SDS011;63609;49.992;14.512;2023-10-08T02:28:07;4.80;;;1.67;;
75038;SDS011;63609;49.992;14.512;2023-10-08T02:30:49;6.63;;;2.08;;
75038;SDS011;63609;49.992;14.512;2023-10-08T02:33:16;5.38;;;2.58;;
75038;SDS011;63609;49.992;14.512;2023-10-08T02:35:44;3.67;;;1.95;;
75038;SDS011;63609;49.992;14.512;2023-10-08T02:38:17;3.67;;;1.60;;
75038;SDS011;63609;49.992;14.512;2023-10-08T02:40:47;4.03;;;1.27;;
75038;SDS011;63609;49.992;14.512;2023-10-08T02:43:15;5.07;;;1.83;;
75038;SDS011;63609;49.992;14.512;2023-10-08T02:45:44;4.85;;;2.47;;
75038;SDS011;63609;49.992;14.512;2023-10-08T02:48:17;5.00;;;1.98;;
75038;SDS011;63609;49.992;14.512;2023-10-08T02:50:45;7.00;;;2.08;;
75038;SDS011;63609;49.992;14.512;2023-10-08T02:53:13;6.05;;;2.17;;
75038;SDS011;63609;49.992;14.512;2023-10-08T02:55:46;4.07;;;1.80;;
75038;SDS011;63609;49.992;14.512;2023-10-08T02:58:14;4.72;;;2.00;;
75038;SDS011;63609;49.992;14.512;2023-10-08T03:00:42;7.13;;;1.88;;
75038;SDS011;63609;49.992;14.512;2023-10-08T03:03:10;5.28;;;2.17;;
75038;SDS011;63609;49.992;14.512;2023-10-08T03:05:46;4.20;;;2.10;;
75038;SDS011;63609;49.992;14.512;2023-10-08T03:08:14;6.15;;;1.75;;
75038;SDS011;63609;49.992;14.512;2023-10-08T03:10:53;3.38;;;1.73;;
75038;SDS011;63609;49.992;14.512;2023-10-08T03:13:23;7.97;;;2.30;;
75038;SDS011;63609;49.992;14.512;2023-10-08T03:15:52;6.07;;;1.92;;
75038;SDS011;63609;49.992;14.512;2023-10-08T03:18:26;5.88;;;2.83;;
75038;SDS011;63609;49.992;14.512;2023-10-08T03:21:06;7.93;;;2.38;;
75038;SDS011;63609;49.992;14.512;2023-10-08T03:24:03;4.22;;;1.67;;
75038;SDS011;63609;49.992;14.512;2023-10-08T03:26:38;3.58;;;1.88;;
75038;SDS011;63609;49.992;14.512;2023-10-08T03:29:06;5.65;;;2.72;;
75038;SDS011;63609;49.992;14.512;2023-10-08T03:31:44;3.55;;;1.77;;
75038;SDS011;63609;49.992;14.512;2023-10-08T03:34:18;2.50;;;1.58;;
75038;SDS011;63609;49.992;14.512;2023-10-08T03:36:46;5.43;;;1.80;;
75038;SDS011;63609;49.992;14.512;2023-10-08T03:39:16;8.30;;;2.55;;
75038;SDS011;63609;49.992;14.512;2023-10-08T03:41:50;4.28;;;1.73;;
75038;SDS011;63609;49.992;14.512;2023-10-08T03:44:32;6.10;;;1.80;;
75038;SDS011;63609;49.992;14.512;2023-10-08T03:47:04;4.13;;;2.30;;
75038;SDS011;63609;49.992;14.512;2023-10-08T03:49:38;4.13;;;2.08;;
75038;SDS011;63609;49.992;14.512;2023-10-08T03:52:12;4.10;;;1.88;;
75038;SDS011;63609;49.992;14.512;2023-10-08T03:54:42;4.40;;;1.58;;
75038;SDS011;63609;49.992;14.512;2023-10-08T03:57:19;4.30;;;2.00;;
75038;SDS011;63609;49.992;14.512;2023-10-08T03:59:52;4.53;;;1.58;;
75038;SDS011;63609;49.992;14.512;2023-10-08T04:02:25;4.70;;;2.30;;
75038;SDS011;63609;49.992;14.512;2023-10-08T04:05:06;4.13;;;1.77;;
75038;SDS011;63609;49.992;14.512;2023-10-08T04:07:46;4.13;;;1.80;;
75038;SDS011;63609;49.992;14.512;2023-10-08T04:10:27;6.18;;;2.20;;
75038;SDS011;63609;49.992;14.512;2023-10-08T04:13:16;8.30;;;2.30;;
75038;SDS011;63609;49.992;14.512;2023-10-08T04:15:43;5.22;;;2.03;;
75038;SDS011;63609;49.992;14.512;2023-10-08T04:18:10;4.70;;;2.00;;
75038;SDS011;63609;49.992;14.512;2023-10-08T04:20:40;3.92;;;2.05;;
75038;SDS011;63609;49.992;14.512;2023-10-08T04:23:27;5.00;;;2.30;;
75038;SDS011;63609;49.992;14.512;2023-10-08T04:25:55;5.00;;;2.45;;
75038;SDS011;63609;49.992;14.512;2023-10-08T04:28:22;5.88;;;2.30;;
75038;SDS011;63609;49.992;14.512;2023-10-08T04:30:55;4.32;;;1.98;;
75038;SDS011;63609;49.992;14.512;2023-10-08T04:33:28;4.82;;;2.00;;
75038;SDS011;63609;49.992;14.512;2023-10-08T04:36:01;5.13;;;2.13;;
75038;SDS011;63609;49.992;14.512;2023-10-08T04:38:28;8.20;;;2.42;;
75038;SDS011;63609;49.992;14.512;2023-10-08T04:40:58;4.30;;;2.03;;
75038;SDS011;63609;49.992;14.512;2023-10-08T04:43:35;3.60;;;1.70;;
75038;SDS011;63609;49.992;14.512;2023-10-08T04:46:05;4.97;;;2.05;;
75038;SDS011;63609;49.992;14.512;2023-10-08T04:48:52;6.93;;;2.08;;
75038;SDS011;63609;49.992;14.512;2023-10-08T04:51:19;5.18;;;1.77;;
75038;SDS011;63609;49.992;14.512;2023-10-08T04:53:49;5.25;;;2.13;;
75038;SDS011;63609;49.992;14.512;2023-10-08T04:56:17;6.32;;;2.25;;
75038;SDS011;63609;49.992;14.512;2023-10-08T04:58:45;9.50;;;2.30;;
75038;SDS011;63609;49.992;14.512;2023-10-08T05:01:13;6.18;;;2.40;;
75038;SDS011;63609;49.992;14.512;2023-10-08T05:03:49;3.78;;;2.60;;
75038;SDS011;63609;49.992;14.512;2023-10-08T05:06:24;7.35;;;2.30;;
75038;SDS011;63609;49.992;14.512;2023-10-08T05:09:05;5.43;;;2.72;;
75038;SDS011;63609;49.992;14.512;2023-10-08T05:11:41;3.05;;;1.00;;
75038;SDS011;63609;49.992;14.512;2023-10-08T05:14:18;5.22;;;0.70;;
75038;SDS011;63609;49.992;14.512;2023-10-08T05:16:56;1.67;;;0.50;;
75038;SDS011;63609;49.992;14.512;2023-10-08T05:19:30;0.43;;;0.35;;
75038;SDS011;63609;49.992;14.512;2023-10-08T05:22:07;0.60;;;0.40;;
75038;SDS011;63609;49.992;14.512;2023-10-08T05:24:54;0.30;;;0.30;;
75038;SDS011;63609;49.992;14.512;2023-10-08T05:27:45;0.20;;;0.20;;
75038;SDS011;63609;49.992;14.512;2023-10-08T05:30:20;0.20;;;0.20;;
75038;SDS011;63609;49.992;14.512;2023-10-08T05:32:55;0.85;;;0.30;;
75038;SDS011;63609;49.992;14.512;2023-10-08T05:35:42;0.20;;;0.20;;
75038;SDS011;63609;49.992;14.512;2023-10-08T05:38:10;0.73;;;0.30;;
75038;SDS011;63609;49.992;14.512;2023-10-08T05:40:50;0.20;;;0.20;;
75038;SDS011;63609;49.992;14.512;2023-10-08T05:43:28;0.73;;;0.43;;
75038;SDS011;63609;49.992;14.512;2023-10-08T05:46:11;0.28;;;0.28;;
75038;SDS011;63609;49.992;14.512;2023-10-08T05:48:50;1.48;;;0.30;;
75038;SDS011;63609;49.992;14.512;2023-10-08T05:51:50;0.68;;;0.40;;
75038;SDS011;63609;49.992;14.512;2023-10-08T05:54:18;0.75;;;0.50;;
75038;SDS011;63609;49.992;14.512;2023-10-08T05:57:05;0.70;;;0.40;;
75038;SDS011;63609;49.992;14.512;2023-10-08T05:59:54;0.65;;;0.40;;
75038;SDS011;63609;49.992;14.512;2023-10-08T06:02:31;1.75;;;0.90;;
75038;SDS011;63609;49.992;14.512;2023-10-08T06:07:48;1.50;;;0.90;;
75038;SDS011;63609;49.992;14.512;2023-10-08T06:10:19;1.20;;;0.50;;
75038;SDS011;63609;49.992;14.512;2023-10-08T06:12:57;1.00;;;0.70;;
75038;SDS011;63609;49.992;14.512;2023-10-08T06:15:44;0.90;;;0.50;;
75038;SDS011;63609;49.992;14.512;2023-10-08T06:18:15;0.73;;;0.50;;
75038;SDS011;63609;49.992;14.512;2023-10-08T06:20:47;2.67;;;0.50;;
75038;SDS011;63609;49.992;14.512;2023-10-08T06:23:17;0.75;;;0.43;;
75038;SDS011;63609;49.992;14.512;2023-10-08T06:25:49;0.65;;;0.45;;
75038;SDS011;63609;49.992;14.512;2023-10-08T06:28:26;0.68;;;0.40;;
75038;SDS011;63609;49.992;14.512;2023-10-08T06:30:54;0.95;;;0.32;;
75038;SDS011;63609;49.992;14.512;2023-10-08T06:33:23;0.85;;;0.50;;
75038;SDS011;63609;49.992;14.512;2023-10-08T06:35:53;0.60;;;0.45;;
75038;SDS011;63609;49.992;14.512;2023-10-08T06:38:32;0.47;;;0.30;;
75038;SDS011;63609;49.992;14.512;2023-10-08T06:41:00;0.90;;;0.40;;
75038;SDS011;63609;49.992;14.512;2023-10-08T06:43:37;1.02;;;0.52;;
75038;SDS011;63609;49.992;14.512;2023-10-08T06:46:05;0.52;;;0.35;;
75038;SDS011;63609;49.992;14.512;2023-10-08T06:48:39;0.47;;;0.30;;
75038;SDS011;63609;49.992;14.512;2023-10-08T06:51:12;0.47;;;0.40;;
75038;SDS011;63609;49.992;14.512;2023-10-08T06:53:40;0.60;;;0.40;;
75038;SDS011;63609;49.992;14.512;2023-10-08T06:56:07;0.90;;;0.50;;
75038;SDS011;63609;49.992;14.512;2023-10-08T06:58:38;0.70;;;0.40;;
75038;SDS011;63609;49.992;14.512;2023-10-08T07:01:05;0.65;;;0.40;;
75038;SDS011;63609;49.992;14.512;2023-10-08T07:03:35;1.40;;;0.55;;
75038;SDS011;63609;49.992;14.512;2023-10-08T07:06:05;1.20;;;0.50;;
75038;SDS011;63609;49.992;14.512;2023-10-08T07:08:52;0.90;;;0.50;;
75038;SDS011;63609;49.992;14.512;2023-10-08T07:11:22;1.08;;;0.50;;
75038;SDS011;63609;49.992;14.512;2023-10-08T07:13:50;0.75;;;0.50;;
75038;SDS011;63609;49.992;14.512;2023-10-08T07:16:17;0.80;;;0.45;;
75038;SDS011;63609;49.992;14.512;2023-10-08T07:18:45;0.77;;;0.43;;
75038;SDS011;63609;49.992;14.512;2023-10-08T07:21:20;1.00;;;0.50;;
75038;SDS011;63609;49.992;14.512;2023-10-08T07:26:41;1.30;;;0.40;;
75038;SDS011;63609;49.992;14.512;2023-10-08T07:29:13;0.85;;;0.50;;
75038;SDS011;63609;49.992;14.512;2023-10-08T07:31:44;0.88;;;0.50;;
75038;SDS011;63609;49.992;14.512;2023-10-08T07:34:25;1.05;;;0.47;;
75038;SDS011;63609;49.992;14.512;2023-10-08T07:36:53;1.58;;;0.40;;
75038;SDS011;63609;49.992;14.512;2023-10-08T07:39:22;3.83;;;0.50;;
75038;SDS011;63609;49.992;14.512;2023-10-08T07:41:53;0.98;;;0.50;;
75038;SDS011;63609;49.992;14.512;2023-10-08T07:44:22;1.88;;;0.60;;
75038;SDS011;63609;49.992;14.512;2023-10-08T07:46:50;1.20;;;0.50;;
75038;SDS011;63609;49.992;14.512;2023-10-08T07:49:21;1.48;;;0.60;;
75038;SDS011;63609;49.992;14.512;2023-10-08T07:51:57;1.60;;;0.63;;
75038;SDS011;63609;49.992;14.512;2023-10-08T07:54:26;0.68;;;0.50;;
75038;SDS011;63609;49.992;14.512;2023-10-08T07:57:01;0.88;;;0.47;;
75038;SDS011;63609;49.992;14.512;2023-10-08T07:59:46;1.15;;;0.70;;
75038;SDS011;63609;49.992;14.512;2023-10-08T08:02:14;1.10;;;0.60;;
75038;SDS011;63609;49.992;14.512;2023-10-08T08:04:44;0.82;;;0.45;;
75038;SDS011;63609;49.992;14.512;2023-10-08T08:07:12;1.27;;;0.57;;
75038;SDS011;63609;49.992;14.512;2023-10-08T08:09:44;0.75;;;0.50;;
75038;SDS011;63609;49.992;14.512;2023-10-08T08:12:20;1.88;;;0.70;;
75038;SDS011;63609;49.992;14.512;2023-10-08T08:14:48;1.52;;;0.60;;
75038;SDS011;63609;49.992;14.512;2023-10-08T08:17:16;1.23;;;0.60;;
75038;SDS011;63609;49.992;14.512;2023-10-08T08:19:45;0.40;;;0.40;;
75038;SDS011;63609;49.992;14.512;2023-10-08T08:22:18;1.30;;;0.40;;
75038;SDS011;63609;49.992;14.512;2023-10-08T08:24:58;0.68;;;0.50;;
75038;SDS011;63609;49.992;14.512;2023-10-08T08:27:43;2.97;;;0.70;;
75038;SDS011;63609;49.992;14.512;2023-10-08T08:30:13;2.25;;;0.80;;
75038;SDS011;63609;49.992;14.512;2023-10-08T08:32:43;1.27;;;0.68;;
75038;SDS011;63609;49.992;14.512;2023-10-08T08:35:11;2.42;;;0.80;;
75038;SDS011;63609;49.992;14.512;2023-10-08T08:37:43;1.45;;;0.60;;
75038;SDS011;63609;49.992;14.512;2023-10-08T08:40:13;1.52;;;0.73;;
75038;SDS011;63609;49.992;14.512;2023-10-08T08:42:50;1.98;;;0.70;;
75038;SDS011;63609;49.992;14.512;2023-10-08T08:45:20;1.90;;;0.75;;
75038;SDS011;63609;49.992;14.512;2023-10-08T08:47:48;1.52;;;0.75;;
75038;SDS011;63609;49.992;14.512;2023-10-08T08:50:15;1.40;;;0.60;;
75038;SDS011;63609;49.992;14.512;2023-10-08T08:52:44;1.42;;;0.80;;
75038;SDS011;63609;49.992;14.512;2023-10-08T08:55:14;1.35;;;0.75;;
75038;SDS011;63609;49.992;14.512;2023-10-08T08:57:46;2.42;;;0.80;;
75038;SDS011;63609;49.992;14.512;2023-10-08T09:00:15;1.45;;;0.77;;
75038;SDS011;63609;49.992;14.512;2023-10-08T09:02:47;2.60;;;1.10;;
75038;SDS011;63609;49.992;14.512;2023-10-08T09:05:17;2.38;;;1.20;;
75038;SDS011;63609;49.992;14.512;2023-10-08T09:10:31;2.85;;;1.08;;
75038;SDS011;63609;49.992;14.512;2023-10-08T09:13:20;3.85;;;0.93;;
75038;SDS011;63609;49.992;14.512;2023-10-08T09:15:49;4.15;;;1.00;;
75038;SDS011;63609;49.992;14.512;2023-10-08T09:18:20;4.50;;;1.33;;
75038;SDS011;63609;49.992;14.512;2023-10-08T09:20:49;5.10;;;1.67;;
75038;SDS011;63609;49.992;14.512;2023-10-08T09:23:16;5.22;;;2.22;;
75038;SDS011;63609;49.992;14.512;2023-10-08T09:25:48;10.15;;;5.18;;
75038;SDS011;63609;49.992;14.512;2023-10-08T09:28:30;4.63;;;1.88;;
75038;SDS011;63609;49.992;14.512;2023-10-08T09:31:00;4.22;;;1.33;;
75038;SDS011;63609;49.992;14.512;2023-10-08T09:33:28;9.43;;;6.15;;
75038;SDS011;63609;49.992;14.512;2023-10-08T09:35:56;10.25;;;5.40;;
75038;SDS011;63609;49.992;14.512;2023-10-08T09:38:29;4.50;;;2.38;;
75038;SDS011;63609;49.992;14.512;2023-10-08T09:40:58;12.45;;;6.57;;
75038;SDS011;63609;49.992;14.512;2023-10-08T09:43:29;8.27;;;3.00;;
75038;SDS011;63609;49.992;14.512;2023-10-08T09:46:00;5.55;;;2.90;;
75038;SDS011;63609;49.992;14.512;2023-10-08T09:48:36;2.92;;;1.50;;
75038;SDS011;63609;49.992;14.512;2023-10-08T09:51:05;6.65;;;2.03;;
75038;SDS011;63609;49.992;14.512;2023-10-08T09:53:36;4.40;;;1.60;;
75038;SDS011;63609;49.992;14.512;2023-10-08T09:56:18;2.55;;;1.27;;
75038;SDS011;63609;49.992;14.512;2023-10-08T09:58:46;3.80;;;1.60;;
75038;SDS011;63609;49.992;14.512;2023-10-08T10:01:18;4.20;;;1.50;;
75038;SDS011;63609;49.992;14.512;2023-10-08T10:03:55;4.68;;;1.65;;
75038;SDS011;63609;49.992;14.512;2023-10-08T10:06:22;3.85;;;1.67;;
75038;SDS011;63609;49.992;14.512;2023-10-08T10:08:49;2.80;;;1.35;;
75038;SDS011;63609;49.992;14.512;2023-10-08T10:11:16;3.38;;;1.25;;
75038;SDS011;63609;49.992;14.512;2023-10-08T10:13:44;3.60;;;1.33;;
75038;SDS011;63609;49.992;14.512;2023-10-08T10:16:20;6.57;;;1.63;;
75038;SDS011;63609;49.992;14.512;2023-10-08T10:18:56;7.00;;;1.67;;
75038;SDS011;63609;49.992;14.512;2023-10-08T10:21:27;5.65;;;2.15;;
75038;SDS011;63609;49.992;14.512;2023-10-08T10:23:55;6.47;;;2.28;;
75038;SDS011;63609;49.992;14.512;2023-10-08T10:26:29;3.33;;;1.70;;
75038;SDS011;63609;49.992;14.512;2023-10-08T10:31:39;5.55;;;2.20;;
75038;SDS011;63609;49.992;14.512;2023-10-08T10:34:21;4.32;;;1.70;;
75038;SDS011;63609;49.992;14.512;2023-10-08T10:36:58;7.00;;;2.00;;
75038;SDS011;63609;49.992;14.512;2023-10-08T10:39:29;5.05;;;2.15;;
75038;SDS011;63609;49.992;14.512;2023-10-08T10:42:00;3.83;;;1.90;;
75038;SDS011;63609;49.992;14.512;2023-10-08T10:44:29;4.80;;;1.95;;
75038;SDS011;63609;49.992;14.512;2023-10-08T10:46:57;5.82;;;2.80;;
75038;SDS011;63609;49.992;14.512;2023-10-08T10:49:51;2.97;;;1.90;;
75038;SDS011;63609;49.992;14.512;2023-10-08T10:52:33;3.78;;;2.08;;
75038;SDS011;63609;49.992;14.512;2023-10-08T10:55:19;3.38;;;1.67;;
75038;SDS011;63609;49.992;14.512;2023-10-08T10:57:58;3.92;;;2.13;;
75038;SDS011;63609;49.992;14.512;2023-10-08T11:00:41;5.32;;;2.30;;
75038;SDS011;63609;49.992;14.512;2023-10-08T11:03:10;7.85;;;2.35;;
75038;SDS011;63609;49.992;14.512;2023-10-08T11:05:56;4.35;;;2.22;;
75038;SDS011;63609;49.992;14.512;2023-10-08T11:08:41;3.47;;;1.65;;
75038;SDS011;63609;49.992;14.512;2023-10-08T11:11:13;6.13;;;2.38;;
75038;SDS011;63609;49.992;14.512;2023-10-08T11:13:44;3.67;;;2.08;;
75038;SDS011;63609;49.992;14.512;2023-10-08T11:16:18;5.05;;;2.00;;
75038;SDS011;63609;49.992;14.512;2023-10-08T11:18:50;5.07;;;1.75;;
75038;SDS011;63609;49.992;14.512;2023-10-08T11:21:17;4.72;;;1.90;;
75038;SDS011;63609;49.992;14.512;2023-10-08T11:23:51;6.05;;;2.53;;
75038;SDS011;63609;49.992;14.512;2023-10-08T11:26:22;3.60;;;1.73;;
75038;SDS011;63609;49.992;14.512;2023-10-08T11:29:02;5.82;;;1.85;;
75038;SDS011;63609;49.992;14.512;2023-10-08T11:31:32;4.38;;;1.77;;
75038;SDS011;63609;49.992;14.512;2023-10-08T11:34:02;3.72;;;1.90;;
75038;SDS011;63609;49.992;14.512;2023-10-08T11:39:20;4.70;;;1.95;;
75038;SDS011;63609;49.992;14.512;2023-10-08T11:41:55;3.75;;;2.20;;
75038;SDS011;63609;49.992;14.512;2023-10-08T11:44:31;4.28;;;1.92;;
75038;SDS011;63609;49.992;14.512;2023-10-08T11:47:05;7.38;;;2.08;;
75038;SDS011;63609;49.992;14.512;2023-10-08T11:49:39;3.42;;;1.95;;
75038;SDS011;63609;49.992;14.512;2023-10-08T11:52:14;4.93;;;1.75;;
75038;SDS011;63609;49.992;14.512;2023-10-08T11:54:42;4.18;;;1.65;;
75038;SDS011;63609;49.992;14.512;2023-10-08T11:57:10;3.75;;;2.03;;
75038;SDS011;63609;49.992;14.512;2023-10-08T11:59:38;4.75;;;1.80;;
75038;SDS011;63609;49.992;14.512;2023-10-08T12:02:06;4.93;;;1.88;;
75038;SDS011;63609;49.992;14.512;2023-10-08T12:04:35;3.88;;;2.00;;
75038;SDS011;63609;49.992;14.512;2023-10-08T12:07:03;4.03;;;1.80;;
75038;SDS011;63609;49.992;14.512;2023-10-08T12:09:36;5.13;;;1.80;;
75038;SDS011;63609;49.992;14.512;2023-10-08T12:12:06;4.60;;;2.00;;
75038;SDS011;63609;49.992;14.512;2023-10-08T12:14:36;5.35;;;2.10;;
75038;SDS011;63609;49.992;14.512;2023-10-08T12:17:04;5.53;;;1.88;;
75038;SDS011;63609;49.992;14.512;2023-10-08T12:19:39;4.72;;;1.60;;
75038;SDS011;63609;49.992;14.512;2023-10-08T12:22:09;5.80;;;1.90;;
75038;SDS011;63609;49.992;14.512;2023-10-08T12:24:41;4.45;;;1.90;;
75038;SDS011;63609;49.992;14.512;2023-10-08T12:27:09;4.35;;;2.17;;
75038;SDS011;63609;49.992;14.512;2023-10-08T12:29:38;4.47;;;1.90;;
75038;SDS011;63609;49.992;14.512;2023-10-08T12:32:06;5.93;;;2.47;;
75038;SDS011;63609;49.992;14.512;2023-10-08T12:34:44;3.20;;;1.83;;
75038;SDS011;63609;49.992;14.512;2023-10-08T12:37:11;5.38;;;2.05;;
75038;SDS011;63609;49.992;14.512;2023-10-08T12:39:41;4.57;;;2.13;;
75038;SDS011;63609;49.992;14.512;2023-10-08T12:42:27;4.75;;;1.95;;
75038;SDS011;63609;49.992;14.512;2023-10-08T12:44:54;3.60;;;2.00;;
75038;SDS011;63609;49.992;14.512;2023-10-08T12:47:24;4.05;;;1.85;;
75038;SDS011;63609;49.992;14.512;2023-10-08T12:49:56;4.65;;;2.00;;
75038;SDS011;63609;49.992;14.512;2023-10-08T12:52:24;4.60;;;1.85;;
75038;SDS011;63609;49.992;14.512;2023-10-08T12:54:55;3.75;;;1.85;;
75038;SDS011;63609;49.992;14.512;2023-10-08T12:57:25;4.28;;;1.83;;
75038;SDS011;63609;49.992;14.512;2023-10-08T12:59:59;4.95;;;1.95;;
75038;SDS011;63609;49.992;14.512;2023-10-08T13:02:29;5.30;;;2.05;;
75038;SDS011;63609;49.992;14.512;2023-10-08T13:04:56;4.57;;;1.67;;
75038;SDS011;63609;49.992;14.512;2023-10-08T13:07:25;7.07;;;1.73;;
75038;SDS011;63609;49.992;14.512;2023-10-08T13:09:54;3.45;;;1.58;;
75038;SDS011;63609;49.992;14.512;2023-10-08T13:12:22;3.47;;;1.70;;
75038;SDS011;63609;49.992;14.512;2023-10-08T13:14:49;4.70;;;1.92;;
75038;SDS011;63609;49.992;14.512;2023-10-08T13:17:16;4.00;;;2.60;;
75038;SDS011;63609;49.992;14.512;2023-10-08T13:19:43;3.95;;;2.05;;
75038;SDS011;63609;49.992;14.512;2023-10-08T13:22:12;3.65;;;1.98;;
75038;SDS011;63609;49.992;14.512;2023-10-08T13:24:46;3.42;;;1.58;;
75038;SDS011;63609;49.992;14.512;2023-10-08T13:27:15;2.97;;;1.70;;
75038;SDS011;63609;49.992;14.512;2023-10-08T13:29:43;4.28;;;2.05;;
75038;SDS011;63609;49.992;14.512;2023-10-08T13:32:13;3.97;;;2.03;;
75038;SDS011;63609;49.992;14.512;2023-10-08T13:34:44;4.78;;;1.83;;
75038;SDS011;63609;49.992;14.512;2023-10-08T13:37:12;4.85;;;2.20;;
75038;SDS011;63609;49.992;14.512;2023-10-08T13:39:42;5.53;;;3.25;;
75038;SDS011;63609;49.992;14.512;2023-10-08T13:42:09;7.43;;;1.98;;
75038;SDS011;63609;49.992;14.512;2023-10-08T13:44:42;4.28;;;1.40;;
75038;SDS011;63609;49.992;14.512;2023-10-08T13:47:11;4.78;;;1.88;;
75038;SDS011;63609;49.992;14.512;2023-10-08T13:49:41;7.63;;;1.63;;
75038;SDS011;63609;49.992;14.512;2023-10-08T13:52:09;3.55;;;1.40;;
75038;SDS011;63609;49.992;14.512;2023-10-08T13:54:37;3.40;;;1.13;;
75038;SDS011;63609;49.992;14.512;2023-10-08T13:57:08;3.60;;;1.25;;
75038;SDS011;63609;49.992;14.512;2023-10-08T13:59:36;4.88;;;1.63;;
75038;SDS011;63609;49.992;14.512;2023-10-08T14:02:05;2.00;;;1.20;;
75038;SDS011;63609;49.992;14.512;2023-10-08T14:04:41;2.55;;;1.40;;
75038;SDS011;63609;49.992;14.512;2023-10-08T14:07:12;2.80;;;1.55;;
75038;SDS011;63609;49.992;14.512;2023-10-08T14:09:44;2.78;;;1.20;;
75038;SDS011;63609;49.992;14.512;2023-10-08T14:12:12;2.47;;;1.20;;
75038;SDS011;63609;49.992;14.512;2023-10-08T14:14:40;2.60;;;1.33;;
75038;SDS011;63609;49.992;14.512;2023-10-08T14:17:11;2.72;;;1.00;;
75038;SDS011;63609;49.992;14.512;2023-10-08T14:20:04;2.92;;;1.63;;
75038;SDS011;63609;49.992;14.512;2023-10-08T14:22:39;2.85;;;1.33;;
75038;SDS011;63609;49.992;14.512;2023-10-08T14:25:10;3.60;;;1.02;;
75038;SDS011;63609;49.992;14.512;2023-10-08T14:27:38;3.83;;;1.40;;
75038;SDS011;63609;49.992;14.512;2023-10-08T14:30:18;4.78;;;1.35;;
75038;SDS011;63609;49.992;14.512;2023-10-08T14:32:50;3.85;;;1.17;;
75038;SDS011;63609;49.992;14.512;2023-10-08T14:35:17;3.88;;;1.52;;
75038;SDS011;63609;49.992;14.512;2023-10-08T14:38:03;4.35;;;1.55;;
75038;SDS011;63609;49.992;14.512;2023-10-08T14:40:49;4.47;;;1.88;;
75038;SDS011;63609;49.992;14.512;2023-10-08T14:43:34;4.82;;;1.60;;
75038;SDS011;63609;49.992;14.512;2023-10-08T14:46:04;4.70;;;1.45;;
75038;SDS011;63609;49.992;14.512;2023-10-08T14:48:35;2.65;;;1.30;;
75038;SDS011;63609;49.992;14.512;2023-10-08T14:51:04;3.55;;;1.55;;
75038;SDS011;63609;49.992;14.512;2023-10-08T14:53:34;3.22;;;1.23;;
75038;SDS011;63609;49.992;14.512;2023-10-08T14:56:02;3.85;;;1.38;;
75038;SDS011;63609;49.992;14.512;2023-10-08T14:58:32;4.95;;;1.80;;
75038;SDS011;63609;49.992;14.512;2023-10-08T15:00:59;5.10;;;2.08;;
75038;SDS011;63609;49.992;14.512;2023-10-08T15:03:27;3.55;;;1.63;;
75038;SDS011;63609;49.992;14.512;2023-10-08T15:05:58;3.13;;;1.52;;
75038;SDS011;63609;49.992;14.512;2023-10-08T15:08:25;3.33;;;1.73;;
75038;SDS011;63609;49.992;14.512;2023-10-08T15:10:54;4.70;;;1.90;;
75038;SDS011;63609;49.992;14.512;2023-10-08T15:13:20;3.58;;;2.00;;
75038;SDS011;63609;49.992;14.512;2023-10-08T15:15:47;4.43;;;1.80;;
75038;SDS011;63609;49.992;14.512;2023-10-08T15:18:16;4.85;;;1.75;;
75038;SDS011;63609;49.992;14.512;2023-10-08T15:20:45;3.92;;;2.30;;
75038;SDS011;63609;49.992;14.512;2023-10-08T15:23:13;4.65;;;2.35;;